CDT,Max TemperatureF,Mean TemperatureF,Min TemperatureF,Max Dew PointF,MeanDew PointF,Min DewpointF,Max Humidity, Mean Humidity, Min Humidity, Max Sea Level PressureIn, Mean Sea Level PressureIn, Min Sea Level PressureIn, Max VisibilityMiles, Mean VisibilityMiles, Min VisibilityMiles, Max Wind SpeedMPH, Mean Wind SpeedMPH, Max Gust SpeedMPH,PrecipitationIn, CloudCover, Events, WindDirDegrees
2010-10-1,86,71,56,58,52,47,80,55,29,29.92,29.88,29.84,10,10,10,16,8,28,0.00,0,,349
2010-10-2,82,68,54,54,49,46,78,54,30,29.96,29.92,29.87,10,10,10,14,6,18,0.00,0,,353
2010-10-3,77,67,56,51,45,39,72,52,31,30.16,30.05,29.95,10,10,10,20,11,24,0.00,0,,356
2010-10-4,73,60,47,41,38,35,76,52,27,30.26,30.20,30.15,10,10,10,20,10,23,0.00,0,,2
2010-10-5,74,59,44,42,39,37,76,53,29,30.32,30.25,30.19,10,10,10,21,9,25,0.00,0,,5
2010-10-6,79,63,47,45,40,34,77,48,19,30.28,30.20,30.12,10,10,10,16,6,21,0.00,0,,6
2010-10-7,83,65,46,49,43,37,86,53,20,30.21,30.14,30.08,10,10,10,13,4,20,0.00,0,,335
2010-10-8,88,68,48,54,50,45,86,55,24,30.14,30.08,30.03,10,10,9,10,3,17,0.00,0,,273
2010-10-9,91,73,55,61,53,48,76,50,24,30.10,30.04,29.98,10,10,10,13,4,16,0.00,0,,262
2010-10-10,89,73,57,64,58,50,93,61,28,30.04,29.99,29.92,10,9,6,16,5,21,0.00,0,,225
2010-10-11,82,72,61,65,61,56,100,73,45,30.04,30.00,29.95,10,6,0,17,5,21,0.00,2,Fog,219
2010-10-12,83,73,63,66,62,58,93,68,43,30.01,29.97,29.93,10,10,4,16,6,21,0.00,3,,218
2010-10-13,84,71,58,63,58,51,100,67,34,30.05,30.01,29.96,10,7,0,12,3,17,0.00,2,Fog,307
2010-10-14,82,68,53,57,49,38,93,59,25,30.12,30.07,30.02,10,10,10,22,8,28,0.00,0,,343
2010-10-15,82,62,41,50,40,30,83,50,16,30.16,30.08,30.01,10,10,10,13,4,16,0.00,0,,283
2010-10-16,83,66,49,51,45,37,93,57,20,30.18,30.13,30.07,10,10,10,12,3,16,0.00,0,,30
2010-10-17,83,66,49,57,52,47,93,62,31,30.19,30.12,30.06,10,10,10,12,3,16,0.00,0,,178
2010-10-18,84,69,53,62,55,50,93,64,35,30.09,30.03,29.96,10,10,6,15,4,18,0.00,2,Fog,207
2010-10-19,83,70,57,59,56,48,93,62,31,30.03,29.98,29.93,10,10,6,11,4,14,0.00,1,,257
2010-10-20,81,70,58,59,57,54,90,68,45,30.03,29.99,29.95,10,10,8,15,6,20,0.00,3,,288
2010-10-21,84,67,49,57,49,40,93,58,22,30.09,30.03,29.99,10,10,6,9,3,16,0.00,0,,306
2010-10-22,85,68,50,54,49,39,96,58,20,30.15,30.09,30.04,10,9,3,13,4,17,0.00,1,Fog,53
2010-10-23,83,69,55,67,57,45,93,63,32,30.18,30.13,30.10,10,10,10,21,7,25,0.00,1,,136
2010-10-24,83,74,64,73,69,62,93,80,67,30.12,30.02,29.94,10,8,2,20,8,24,0.95,6,Rain-Thunderstorm,140
2010-10-25,84,78,71,75,71,69,100,83,65,29.95,29.89,29.80,10,10,3,18,10,25,1.30,6,Rain-Thunderstorm,198
2010-10-26,86,81,75,74,73,71,88,77,65,29.90,29.84,29.79,10,10,6,23,13,29,0.10,7,Rain,188
2010-10-27,84,81,77,76,74,73,94,82,70,30.08,29.99,29.91,10,8,2,20,10,24,0.97,7,Rain,197
2010-10-28,77,67,57,75,60,36,94,58,22,30.23,30.13,30.06,10,8,2,20,8,24,0.76,7,Rain-Thunderstorm,302
2010-10-29,73,61,48,41,38,35,71,48,25,30.29,30.22,30.17,10,10,10,16,10,21,0.00,1,,4
2010-10-30,77,61,44,54,47,38,93,68,43,30.21,30.15,30.08,10,10,10,10,3,13,0.00,0,,124
2010-10-31,78,66,53,60,57,51,93,71,48,30.13,30.08,30.03,10,10,10,12,3,16,0.00,3,,208